sensor_id;sensor_type;location;lat;lon;timestamp;pressure;altitude;pressure_sealevel;temperature;humidity
45253;BME280;63171;50.520;30.486;2023-03-16T00:00:35;99266.13;;;6.34;100.00
45253;BME280;63171;50.520;30.486;2023-03-16T00:01:26;99266.97;;;6.35;100.00
45253;BME280;63171;50.520;30.486;2023-03-16T00:02:17;99262.94;;;6.29;100.00
45253;BME280;63171;50.520;30.486;2023-03-16T00:03:07;99263.16;;;6.25;100.00
45253;BME280;63171;50.520;30.486;2023-03-16T00:03:58;99265.84;;;6.23;100.00
45253;BME280;63171;50.520;30.486;2023-03-16T00:04:48;99262.94;;;6.29;100.00
45253;BME280;63171;50.520;30.486;2023-03-16T00:05:38;99258.50;;;6.31;100.00
45253;BME280;63171;50.520;30.486;2023-03-16T00:06:28;99262.84;;;6.31;100.00
45253;BME280;63171;50.520;30.486;2023-03-16T00:07:18;99261.84;;;6.33;100.00
45253;BME280;63171;50.520;30.486;2023-03-16T00:08:09;99266.78;;;6.38;100.00
45253;BME280;63171;50.520;30.486;2023-03-16T00:09:00;99264.94;;;6.40;100.00
45253;BME280;63171;50.520;30.486;2023-03-16T00:09:50;99254.78;;;6.35;100.00
45253;BME280;63171;50.520;30.486;2023-03-16T00:10:41;99254.88;;;6.34;100.00
45253;BME280;63171;50.520;30.486;2023-03-16T00:11:34;99256.38;;;6.38;100.00
45253;BME280;63171;50.520;30.486;2023-03-16T00:12:25;99256.56;;;6.35;100.00
45253;BME280;63171;50.520;30.486;2023-03-16T00:13:16;99260.84;;;6.36;100.00
45253;BME280;63171;50.520;30.486;2023-03-16T00:14:07;99252.19;;;6.35;100.00
45253;BME280;63171;50.520;30.486;2023-03-16T00:14:57;99253.28;;;6.31;100.00
45253;BME280;63171;50.520;30.486;2023-03-16T00:15:49;99254.22;;;6.30;100.00
45253;BME280;63171;50.520;30.486;2023-03-16T00:16:40;99248.41;;;6.25;100.00
45253;BME280;63171;50.520;30.486;2023-03-16T00:17:30;99249.94;;;6.29;100.00
45253;BME280;63171;50.520;30.486;2023-03-16T00:18:21;99253.38;;;6.30;100.00
45253;BME280;63171;50.520;30.486;2023-03-16T00:19:15;99250.00;;;6.28;100.00
45253;BME280;63171;50.520;30.486;2023-03-16T00:20:06;99249.09;;;6.29;100.00
45253;BME280;63171;50.520;30.486;2023-03-16T00:20:57;99255.81;;;6.33;100.00
45253;BME280;63171;50.520;30.486;2023-03-16T00:21:47;99246.31;;;6.32;100.00
45253;BME280;63171;50.520;30.486;2023-03-16T00:22:39;99249.94;;;6.29;100.00
45253;BME280;63171;50.520;30.486;2023-03-16T00:23:31;99250.00;;;6.28;100.00
45253;BME280;63171;50.520;30.486;2023-03-16T00:24:24;99251.53;;;6.32;100.00
45253;BME280;63171;50.520;30.486;2023-03-16T00:25:14;99250.78;;;6.30;100.00
45253;BME280;63171;50.520;30.486;2023-03-16T00:26:07;99250.59;;;6.17;100.00
45253;BME280;63171;50.520;30.486;2023-03-16T00:26:57;99254.72;;;6.21;100.00
45253;BME280;63171;50.520;30.486;2023-03-16T00:27:47;99257.03;;;6.26;100.00
45253;BME280;63171;50.520;30.486;2023-03-16T00:28:37;99255.28;;;6.26;100.00
45253;BME280;63171;50.520;30.486;2023-03-16T00:29:28;99251.69;;;6.29;100.00
45253;BME280;63171;50.520;30.486;2023-03-16T00:30:18;99255.06;;;6.31;100.00
45253;BME280;63171;50.520;30.486;2023-03-16T00:31:10;99252.19;;;6.35;100.00
45253;BME280;63171;50.520;30.486;2023-03-16T00:32:01;99255.44;;;6.39;100.00
45253;BME280;63171;50.520;30.486;2023-03-16T00:32:52;99252.53;;;6.29;100.00
45253;BME280;63171;50.520;30.486;2023-03-16T00:33:42;99248.59;;;6.22;100.00
45253;BME280;63171;50.520;30.486;2023-03-16T00:34:33;99247.75;;;6.21;100.00
45253;BME280;63171;50.520;30.486;2023-03-16T00:35:23;99251.44;;;6.17;100.00
45253;BME280;63171;50.520;30.486;2023-03-16T00:36:14;99251.09;;;6.23;100.00
45253;BME280;63171;50.520;30.486;2023-03-16T00:37:06;99249.25;;;6.26;100.00
45253;BME280;63171;50.520;30.486;2023-03-16T00:37:56;99246.81;;;6.22;100.00
45253;BME280;63171;50.520;30.486;2023-03-16T00:38:48;99248.25;;;6.28;100.00
45253;BME280;63171;50.520;30.486;2023-03-16T00:39:38;99252.84;;;6.39;100.00
45253;BME280;63171;50.520;30.486;2023-03-16T00:40:29;99253.94;;;6.35;100.00
45253;BME280;63171;50.520;30.486;2023-03-16T00:41:22;99250.59;;;6.33;100.00
45253;BME280;63171;50.520;30.486;2023-03-16T00:42:13;99248.94;;;6.32;100.00
45253;BME280;63171;50.520;30.486;2023-03-16T00:43:04;99254.13;;;6.32;100.00
45253;BME280;63171;50.520;30.486;2023-03-16T00:43:54;99249.09;;;6.29;100.00
45253;BME280;63171;50.520;30.486;2023-03-16T00:44:44;99255.97;;;6.30;100.00
45253;BME280;63171;50.520;30.486;2023-03-16T00:45:34;99252.78;;;6.25;100.00
45253;BME280;63171;50.520;30.486;2023-03-16T00:46:25;99255.81;;;6.33;100.00
45253;BME280;63171;50.520;30.486;2023-03-16T00:47:17;99249.69;;;6.34;100.00
45253;BME280;63171;50.520;30.486;2023-03-16T00:48:09;99260.34;;;6.29;100.00
45253;BME280;63171;50.520;30.486;2023-03-16T00:48:59;99254.31;;;6.29;100.00
45253;BME280;63171;50.520;30.486;2023-03-16T00:49:51;99261.19;;;6.30;100.00
45253;BME280;63171;50.520;30.486;2023-03-16T00:50:41;99259.91;;;6.21;100.00
45253;BME280;63171;50.520;30.486;2023-03-16T00:51:31;99258.31;;;6.18;100.00
45253;BME280;63171;50.520;30.486;2023-03-16T00:52:22;99261.00;;;6.17;100.00
45253;BME280;63171;50.520;30.486;2023-03-16T00:53:13;99263.59;;;6.17;100.00
45253;BME280;63171;50.520;30.486;2023-03-16T00:54:03;99264.09;;;6.23;100.00
45253;BME280;63171;50.520;30.486;2023-03-16T00:54:54;99268.91;;;6.31;100.00
45253;BME280;63171;50.520;30.486;2023-03-16T00:55:44;99267.22;;;6.30;100.00
45253;BME280;63171;50.520;30.486;2023-03-16T00:56:35;99264.19;;;6.38;100.00
45253;BME280;63171;50.520;30.486;2023-03-16T00:57:25;99273.84;;;6.36;100.00
45253;BME280;63171;50.520;30.486;2023-03-16T00:58:16;99271.31;;;6.34;100.00
45253;BME280;63171;50.520;30.486;2023-03-16T00:59:05;99271.75;;;6.42;100.00
45253;BME280;63171;50.520;30.486;2023-03-16T00:59:57;99266.47;;;6.44;100.00
45253;BME280;63171;50.520;30.486;2023-03-16T01:02:34;99265.72;;;6.42;100.00
45253;BME280;63171;50.520;30.486;2023-03-16T01:03:25;99265.84;;;6.39;100.00
45253;BME280;63171;50.520;30.486;2023-03-16T01:04:15;99264.00;;;6.41;100.00
45253;BME280;63171;50.520;30.486;2023-03-16T01:05:05;99268.97;;;6.45;100.00
45253;BME280;63171;50.520;30.486;2023-03-16T01:06:02;99263.78;;;6.45;100.00
45253;BME280;63171;50.520;30.486;2023-03-16T01:06:52;99272.41;;;6.46;100.00
45253;BME280;63171;50.520;30.486;2023-03-16T01:07:43;99271.41;;;6.48;100.00
45253;BME280;63171;50.520;30.486;2023-03-16T01:08:33;99274.84;;;6.49;100.00
45253;BME280;63171;50.520;30.486;2023-03-16T01:09:24;99268.47;;;6.55;100.00
45253;BME280;63171;50.520;30.486;2023-03-16T01:10:14;99268.63;;;6.51;100.00
45253;BME280;63171;50.520;30.486;2023-03-16T01:11:07;99274.56;;;6.53;100.00
45253;BME280;63171;50.520;30.486;2023-03-16T01:11:58;99274.94;;;6.47;100.00
45253;BME280;63171;50.520;30.486;2023-03-16T01:12:48;99275.50;;;6.52;100.00
45253;BME280;63171;50.520;30.486;2023-03-16T01:13:39;99278.81;;;6.56;100.00
45253;BME280;63171;50.520;30.486;2023-03-16T01:14:29;99276.94;;;6.58;100.00
45253;BME280;63171;50.520;30.486;2023-03-16T01:15:20;99276.88;;;6.60;100.00
45253;BME280;63171;50.520;30.486;2023-03-16T01:16:10;99281.97;;;6.61;100.00
45253;BME280;63171;50.520;30.486;2023-03-16T01:17:02;99276.94;;;6.58;100.00
45253;BME280;63171;50.520;30.486;2023-03-16T01:17:53;99275.84;;;6.46;100.00
45253;BME280;63171;50.520;30.486;2023-03-16T01:18:44;99281.91;;;6.47;100.00
45253;BME280;63171;50.520;30.486;2023-03-16T01:19:35;99283.00;;;6.43;100.00
45253;BME280;63171;50.520;30.486;2023-03-16T01:20:27;99281.16;;;6.45;100.00
45253;BME280;63171;50.520;30.486;2023-03-16T01:21:17;99277.72;;;6.44;100.00
45253;BME280;63171;50.520;30.486;2023-03-16T01:22:07;99273.53;;;6.42;100.00
45253;BME280;63171;50.520;30.486;2023-03-16T01:22:58;99275.84;;;6.46;100.00
45253;BME280;63171;50.520;30.486;2023-03-16T01:23:48;99278.28;;;6.49;100.00
45253;BME280;63171;50.520;30.486;2023-03-16T01:24:39;99281.97;;;6.45;100.00
45253;BME280;63171;50.520;30.486;2023-03-16T01:25:29;99272.50;;;6.44;100.00
45253;BME280;63171;50.520;30.486;2023-03-16T01:26:21;99285.59;;;6.43;100.00
45253;BME280;63171;50.520;30.486;2023-03-16T01:27:13;99282.47;;;6.36;100.00
45253;BME280;63171;50.520;30.486;2023-03-16T01:28:03;99279.97;;;6.35;100.00
45253;BME280;63171;50.520;30.486;2023-03-16T01:28:54;99291.78;;;6.40;100.00
45253;BME280;63171;50.520;30.486;2023-03-16T01:29:45;99294.38;;;6.40;100.00
45253;BME280;63171;50.520;30.486;2023-03-16T01:30:36;99293.50;;;6.41;100.00
45253;BME280;63171;50.520;30.486;2023-03-16T01:31:26;99298.69;;;6.41;100.00
45253;BME280;63171;50.520;30.486;2023-03-16T01:32:17;99295.38;;;6.38;100.00
45253;BME280;63171;50.520;30.486;2023-03-16T01:33:08;99293.13;;;6.32;100.00
45253;BME280;63171;50.520;30.486;2023-03-16T01:33:59;99287.09;;;6.15;100.00
45253;BME280;63171;50.520;30.486;2023-03-16T01:34:52;99293.25;;;6.13;100.00
45253;BME280;63171;50.520;30.486;2023-03-16T01:35:51;99283.31;;;6.21;100.00
45253;BME280;63171;50.520;30.486;2023-03-16T01:36:41;99286.66;;;6.23;100.00
45253;BME280;63171;50.520;30.486;2023-03-16T01:37:32;99295.97;;;6.27;100.00
45253;BME280;63171;50.520;30.486;2023-03-16T01:38:29;99289.88;;;6.28;100.00
45253;BME280;63171;50.520;30.486;2023-03-16T01:39:20;99289.69;;;6.15;100.00
45253;BME280;63171;50.520;30.486;2023-03-16T01:40:12;99297.78;;;6.09;100.00
45253;BME280;63171;50.520;30.486;2023-03-16T01:41:04;99298.81;;;6.07;100.00
45253;BME280;63171;50.520;30.486;2023-03-16T01:41:54;99310.72;;;6.11;100.00
45253;BME280;63171;50.520;30.486;2023-03-16T01:42:45;99311.25;;;6.00;100.00
45253;BME280;63171;50.520;30.486;2023-03-16T01:43:37;99305.56;;;5.93;100.00
45253;BME280;63171;50.520;30.486;2023-03-16T01:44:27;99308.50;;;5.86;100.00
45253;BME280;63171;50.520;30.486;2023-03-16T01:46:13;99313.38;;;5.76;100.00
45253;BME280;63171;50.520;30.486;2023-03-16T01:47:08;99304.72;;;5.76;100.00
45253;BME280;63171;50.520;30.486;2023-03-16T01:47:58;99310.16;;;5.71;100.00
45253;BME280;63171;50.520;30.486;2023-03-16T01:48:55;99304.72;;;5.58;100.00
45253;BME280;63171;50.520;30.486;2023-03-16T01:49:49;99305.44;;;5.45;100.00
45253;BME280;63171;50.520;30.486;2023-03-16T01:50:44;99296.59;;;5.49;100.00
45253;BME280;63171;50.520;30.486;2023-03-16T01:51:37;99305.31;;;5.48;100.00
45253;BME280;63171;50.520;30.486;2023-03-16T01:52:33;99299.88;;;5.52;100.00
45253;BME280;63171;50.520;30.486;2023-03-16T01:53:25;99294.00;;;5.49;100.00
45253;BME280;63171;50.520;30.486;2023-03-16T01:54:21;99299.19;;;5.49;100.00
45253;BME280;63171;50.520;30.486;2023-03-16T01:55:11;99301.25;;;5.42;100.00
45253;BME280;63171;50.520;30.486;2023-03-16T01:56:06;99307.66;;;5.35;100.00
45253;BME280;63171;50.520;30.486;2023-03-16T01:57:02;99303.31;;;5.36;100.00
45253;BME280;63171;50.520;30.486;2023-03-16T01:57:55;99310.88;;;5.40;100.00
45253;BME280;63171;50.520;30.486;2023-03-16T01:58:45;99301.47;;;5.38;100.00
45253;BME280;63171;50.520;30.486;2023-03-16T01:59:39;99305.28;;;5.30;100.00
45253;BME280;63171;50.520;30.486;2023-03-16T02:00:31;99302.00;;;5.27;100.00
45253;BME280;63171;50.520;30.486;2023-03-16T02:01:35;99301.09;;;5.28;100.00
45253;BME280;63171;50.520;30.486;2023-03-16T02:02:29;99309.78;;;5.27;100.00
45253;BME280;63171;50.520;30.486;2023-03-16T02:03:21;99307.88;;;5.30;100.00
45253;BME280;63171;50.520;30.486;2023-03-16T02:04:27;99307.44;;;5.22;100.00
45253;BME280;63171;50.520;30.486;2023-03-16T02:05:26;99310.78;;;5.24;100.00
45253;BME280;63171;50.520;30.486;2023-03-16T02:06:20;99325.59;;;5.22;100.00
45253;BME280;63171;50.520;30.486;2023-03-16T02:07:17;99322.16;;;5.22;100.00
45253;BME280;63171;50.520;30.486;2023-03-16T02:08:08;99321.78;;;5.29;100.00
45253;BME280;63171;50.520;30.486;2023-03-16T02:09:01;99323.84;;;5.23;100.00
45253;BME280;63171;50.520;30.486;2023-03-16T02:09:54;99320.34;;;5.24;100.00
45253;BME280;63171;50.520;30.486;2023-03-16T02:10:47;99325.22;;;5.30;100.00
45253;BME280;63171;50.520;30.486;2023-03-16T02:11:37;99322.84;;;5.25;100.00
45253;BME280;63171;50.520;30.486;2023-03-16T02:12:33;99322.53;;;5.31;100.00
45253;BME280;63171;50.520;30.486;2023-03-16T02:13:26;99322.41;;;5.34;100.00
45253;BME280;63171;50.520;30.486;2023-03-16T02:14:18;99326.53;;;5.39;100.00
45253;BME280;63171;50.520;30.486;2023-03-16T02:15:09;99323.38;;;5.32;100.00
45253;BME280;63171;50.520;30.486;2023-03-16T02:16:00;99325.06;;;5.33;100.00
45253;BME280;63171;50.520;30.486;2023-03-16T02:16:51;99322.84;;;5.43;100.00
45253;BME280;63171;50.520;30.486;2023-03-16T02:17:43;99323.53;;;5.46;100.00
45253;BME280;63171;50.520;30.486;2023-03-16T02:18:36;99315.31;;;5.38;100.00
45253;BME280;63171;50.520;30.486;2023-03-16T02:19:34;99319.72;;;5.36;100.00
45253;BME280;63171;50.520;30.486;2023-03-16T02:20:35;99326.28;;;5.43;100.00
45253;BME280;63171;50.520;30.486;2023-03-16T02:21:32;99328.03;;;5.43;100.00
45253;BME280;63171;50.520;30.486;2023-03-16T02:22:27;99330.47;;;5.46;100.00
45253;BME280;63171;50.520;30.486;2023-03-16T02:23:19;99333.53;;;5.54;100.00
45253;BME280;63171;50.520;30.486;2023-03-16T02:24:11;99327.28;;;5.58;100.00
45253;BME280;63171;50.520;30.486;2023-03-16T02:25:02;99330.09;;;5.53;100.00
45253;BME280;63171;50.520;30.486;2023-03-16T02:25:59;99328.09;;;5.58;100.00
45253;BME280;63171;50.520;30.486;2023-03-16T02:26:56;99325.91;;;5.51;100.00
45253;BME280;63171;50.520;30.486;2023-03-16T02:27:56;99337.97;;;5.52;100.00
45253;BME280;63171;50.520;30.486;2023-03-16T02:28:54;99340.41;;;5.55;100.00
45253;BME280;63171;50.520;30.486;2023-03-16T02:29:56;99348.13;;;5.56;100.00
45253;BME280;63171;50.520;30.486;2023-03-16T02:30:49;99332.53;;;5.56;100.00
45253;BME280;63171;50.520;30.486;2023-03-16T02:31:40;99340.13;;;5.61;100.00
45253;BME280;63171;50.520;30.486;2023-03-16T02:32:30;99340.03;;;5.62;100.00
45253;BME280;63171;50.520;30.486;2023-03-16T02:33:24;99342.66;;;5.62;100.00
45253;BME280;63171;50.520;30.486;2023-03-16T02:34:16;99337.28;;;5.66;100.00
45253;BME280;63171;50.520;30.486;2023-03-16T02:35:07;99336.53;;;5.63;100.00
45253;BME280;63171;50.520;30.486;2023-03-16T02:35:58;99333.47;;;5.55;100.00
45253;BME280;63171;50.520;30.486;2023-03-16T02:36:49;99339.41;;;5.57;100.00
45253;BME280;63171;50.520;30.486;2023-03-16T02:37:46;99339.25;;;5.60;100.00
45253;BME280;63171;50.520;30.486;2023-03-16T02:38:35;99340.41;;;5.55;100.00
45253;BME280;63171;50.520;30.486;2023-03-16T02:39:26;99343.47;;;5.63;100.00
45253;BME280;63171;50.520;30.486;2023-03-16T02:40:19;99346.59;;;5.70;100.00
45253;BME280;63171;50.520;30.486;2023-03-16T02:41:15;99344.75;;;5.72;100.00
45253;BME280;63171;50.520;30.486;2023-03-16T02:42:10;99341.41;;;5.70;100.00
45253;BME280;63171;50.520;30.486;2023-03-16T02:43:04;99346.91;;;5.63;100.00
45253;BME280;63171;50.520;30.486;2023-03-16T02:44:03;99340.03;;;5.62;100.00
45253;BME280;63171;50.520;30.486;2023-03-16T02:44:59;99341.56;;;5.67;100.00
45253;BME280;63171;50.520;30.486;2023-03-16T02:45:56;99334.97;;;5.59;100.00
45253;BME280;63171;50.520;30.486;2023-03-16T02:46:51;99334.06;;;5.60;100.00
45253;BME280;63171;50.520;30.486;2023-03-16T02:47:43;99339.03;;;5.65;100.00
45253;BME280;63171;50.520;30.486;2023-03-16T02:48:40;99332.94;;;5.66;100.00
45253;BME280;63171;50.520;30.486;2023-03-16T02:49:35;99336.44;;;5.65;100.00
45253;BME280;63171;50.520;30.486;2023-03-16T02:50:27;99332.25;;;5.62;100.00
45253;BME280;63171;50.520;30.486;2023-03-16T02:51:17;99334.00;;;5.62;100.00
45253;BME280;63171;50.520;30.486;2023-03-16T02:52:09;99323.66;;;5.60;100.00
45253;BME280;63171;50.520;30.486;2023-03-16T02:52:58;99326.34;;;5.59;100.00
45253;BME280;63171;50.520;30.486;2023-03-16T02:53:50;99325.50;;;5.58;100.00
45253;BME280;63171;50.520;30.486;2023-03-16T02:54:42;99328.50;;;5.68;100.00
45253;BME280;63171;50.520;30.486;2023-03-16T02:55:33;99326.34;;;5.76;100.00
45253;BME280;63171;50.520;30.486;2023-03-16T02:56:22;99320.31;;;5.76;100.00
45253;BME280;63171;50.520;30.486;2023-03-16T02:57:13;99320.38;;;5.74;100.00
45253;BME280;63171;50.520;30.486;2023-03-16T02:58:03;99317.25;;;5.68;100.00
45253;BME280;63171;50.520;30.486;2023-03-16T02:58:54;99320.09;;;5.63;100.00
45253;BME280;63171;50.520;30.486;2023-03-16T02:59:46;99316.81;;;5.59;100.00
45253;BME280;63171;50.520;30.486;2023-03-16T03:00:39;99326.22;;;5.62;100.00
45253;BME280;63171;50.520;30.486;2023-03-16T03:01:29;99318.19;;;5.67;100.00
45253;BME280;63171;50.520;30.486;2023-03-16T03:02:20;99319.78;;;5.69;100.00
45253;BME280;63171;50.520;30.486;2023-03-16T03:03:09;99324.31;;;5.66;100.00
45253;BME280;63171;50.520;30.486;2023-03-16T03:04:01;99320.94;;;5.63;100.00
45253;BME280;63171;50.520;30.486;2023-03-16T03:04:50;99326.28;;;5.60;100.00
45253;BME280;63171;50.520;30.486;2023-03-16T03:05:42;99329.66;;;5.62;100.00
45253;BME280;63171;50.520;30.486;2023-03-16T03:06:33;99324.91;;;5.53;100.00
45253;BME280;63171;50.520;30.486;2023-03-16T03:07:23;99328.03;;;5.60;100.00
45253;BME280;63171;50.520;30.486;2023-03-16T03:08:23;99333.31;;;5.58;100.00
45253;BME280;63171;50.520;30.486;2023-03-16T03:09:12;99332.53;;;5.56;100.00
45253;BME280;63171;50.520;30.486;2023-03-16T03:10:05;99339.75;;;5.51;100.00
45253;BME280;63171;50.520;30.486;2023-03-16T03:10:55;99332.63;;;5.55;100.00
45253;BME280;63171;50.520;30.486;2023-03-16T03:11:46;99334.38;;;5.54;100.00
45253;BME280;63171;50.520;30.486;2023-03-16T03:12:35;99335.06;;;5.58;100.00
45253;BME280;63171;50.520;30.486;2023-03-16T03:13:29;99339.59;;;5.54;100.00
45253;BME280;63171;50.520;30.486;2023-03-16T03:14:20;99332.47;;;5.58;100.00
45253;BME280;63171;50.520;30.486;2023-03-16T03:15:12;99333.63;;;5.52;100.00
45253;BME280;63171;50.520;30.486;2023-03-16T03:16:13;99335.53;;;5.49;100.00
45253;BME280;63171;50.520;30.486;2023-03-16T03:17:04;99337.91;;;5.53;100.00
45253;BME280;63171;50.520;30.486;2023-03-16T03:17:55;99339.75;;;5.51;100.00
45253;BME280;63171;50.520;30.486;2023-03-16T03:18:47;99330.72;;;5.41;100.00
45253;BME280;63171;50.520;30.486;2023-03-16T03:19:37;99336.84;;;5.40;100.00
45253;BME280;63171;50.520;30.486;2023-03-16T03:20:27;99337.44;;;5.45;100.00
45253;BME280;63171;50.520;30.486;2023-03-16T03:21:18;99335.47;;;5.50;100.00
45253;BME280;63171;50.520;30.486;2023-03-16T03:22:07;99339.50;;;5.39;100.00
45253;BME280;63171;50.520;30.486;2023-03-16T03:22:58;99341.88;;;5.43;100.00
45253;BME280;63171;50.520;30.486;2023-03-16T03:23:48;99344.09;;;5.51;100.00
45253;BME280;63171;50.520;30.486;2023-03-16T03:24:39;99338.81;;;5.52;100.00
45253;BME280;63171;50.520;30.486;2023-03-16T03:25:29;99345.22;;;5.45;100.00
45253;BME280;63171;50.520;30.486;2023-03-16T03:26:19;99344.63;;;5.40;100.00
45253;BME280;63171;50.520;30.486;2023-03-16T03:27:11;99341.59;;;5.49;100.00
45253;BME280;63171;50.520;30.486;2023-03-16T03:28:03;99346.91;;;5.46;100.00
45253;BME280;63171;50.520;30.486;2023-03-16T03:28:54;99345.53;;;5.39;100.00
45253;BME280;63171;50.520;30.486;2023-03-16T03:29:44;99344.78;;;5.37;100.00
45253;BME280;63171;50.520;30.486;2023-03-16T03:30:35;99335.59;;;5.30;100.00
45253;BME280;63171;50.520;30.486;2023-03-16T03:31:27;99337.84;;;5.38;100.00
45253;BME280;63171;50.520;30.486;2023-03-16T03:32:20;99337.00;;;5.37;100.00
45253;BME280;63171;50.520;30.486;2023-03-16T03:33:10;99343.88;;;5.38;100.00
45253;BME280;63171;50.520;30.486;2023-03-16T03:34:01;99346.63;;;5.35;100.00
45253;BME280;63171;50.520;30.486;2023-03-16T03:34:55;99345.69;;;5.36;100.00
45253;BME280;63171;50.520;30.486;2023-03-16T03:35:52;99345.53;;;5.39;100.00
45253;BME280;63171;50.520;30.486;2023-03-16T03:36:42;99343.69;;;5.41;100.00
45253;BME280;63171;50.520;30.486;2023-03-16T03:37:33;99348.91;;;5.41;100.00
45253;BME280;63171;50.520;30.486;2023-03-16T03:38:23;99345.06;;;5.31;100.00
45253;BME280;63171;50.520;30.486;2023-03-16T03:39:15;99347.66;;;5.31;100.00
45253;BME280;63171;50.520;30.486;2023-03-16T03:40:05;99352.69;;;5.34;100.00
45253;BME280;63171;50.520;30.486;2023-03-16T03:41:00;99352.78;;;5.32;100.00
45253;BME280;63171;50.520;30.486;2023-03-16T03:41:54;99354.44;;;5.33;100.00
45253;BME280;63171;50.520;30.486;2023-03-16T03:42:47;99351.72;;;5.37;100.00
45253;BME280;63171;50.520;30.486;2023-03-16T03:43:37;99353.63;;;5.33;100.00
45253;BME280;63171;50.520;30.486;2023-03-16T03:44:30;99345.97;;;5.30;100.00
45253;BME280;63171;50.520;30.486;2023-03-16T03:45:23;99350.34;;;5.29;100.00
45253;BME280;63171;50.520;30.486;2023-03-16T03:46:13;99348.66;;;5.28;100.00
45253;BME280;63171;50.520;30.486;2023-03-16T03:47:05;99343.78;;;5.22;100.00
45253;BME280;63171;50.520;30.486;2023-03-16T03:47:56;99336.00;;;5.22;100.00
45253;BME280;63171;50.520;30.486;2023-03-16T03:48:46;99332.16;;;5.12;100.00
45253;BME280;63171;50.520;30.486;2023-03-16T03:49:36;99339.25;;;5.09;100.00
45253;BME280;63171;50.520;30.486;2023-03-16T03:50:27;99345.28;;;5.09;100.00
45253;BME280;63171;50.520;30.486;2023-03-16T03:51:40;99336.69;;;5.07;100.00
45253;BME280;63171;50.520;30.486;2023-03-16T03:52:36;99327.81;;;5.13;100.00
45253;BME280;63171;50.520;30.486;2023-03-16T03:53:25;99346.13;;;5.10;100.00
45253;BME280;63171;50.520;30.486;2023-03-16T03:54:42;99343.66;;;5.07;100.00
45253;BME280;63171;50.520;30.486;2023-03-16T03:55:36;99343.59;;;5.08;100.00
45253;BME280;63171;50.520;30.486;2023-03-16T03:56:27;99348.56;;;5.13;100.00
45253;BME280;63171;50.520;30.486;2023-03-16T03:57:17;99355.44;;;5.14;100.00
45253;BME280;63171;50.520;30.486;2023-03-16T03:58:08;99353.00;;;5.11;100.00
45253;BME280;63171;50.520;30.486;2023-03-16T03:58:58;99360.97;;;5.06;100.00
45253;BME280;63171;50.520;30.486;2023-03-16T04:00:09;99360.13;;;5.05;100.00
45253;BME280;63171;50.520;30.486;2023-03-16T04:01:07;99356.63;;;5.07;100.00
45253;BME280;63171;50.520;30.486;2023-03-16T04:01:58;99360.84;;;5.09;100.00
45253;BME280;63171;50.520;30.486;2023-03-16T04:02:57;99346.25;;;5.07;100.00
45253;BME280;63171;50.520;30.486;2023-03-16T04:03:55;99351.50;;;5.05;100.00
45253;BME280;63171;50.520;30.486;2023-03-16T04:04:45;99355.09;;;5.02;100.00
45253;BME280;63171;50.520;30.486;2023-03-16T04:05:36;99354.88;;;5.07;100.00
45253;BME280;63171;50.520;30.486;2023-03-16T04:06:26;99346.03;;;5.11;100.00
45253;BME280;63171;50.520;30.486;2023-03-16T04:07:18;99351.25;;;5.11;100.00
45253;BME280;63171;50.520;30.486;2023-03-16T04:08:08;99353.75;;;5.13;100.00
45253;BME280;63171;50.520;30.486;2023-03-16T04:08:59;99356.44;;;5.11;100.00
45253;BME280;63171;50.520;30.486;2023-03-16T04:09:50;99353.06;;;5.09;100.00
45253;BME280;63171;50.520;30.486;2023-03-16T04:10:57;99349.03;;;5.21;100.00
45253;BME280;63171;50.520;30.486;2023-03-16T04:11:46;99346.50;;;5.19;100.00
45253;BME280;63171;50.520;30.486;2023-03-16T04:12:37;99348.06;;;5.23;100.00
45253;BME280;63171;50.520;30.486;2023-03-16T04:13:29;99349.66;;;5.26;100.00
45253;BME280;63171;50.520;30.486;2023-03-16T04:14:20;99348.50;;;5.31;100.00
45253;BME280;63171;50.520;30.486;2023-03-16T04:15:12;99351.19;;;5.30;100.00
45253;BME280;63171;50.520;30.486;2023-03-16T04:16:29;99354.25;;;5.21;100.00
45253;BME280;63171;50.520;30.486;2023-03-16T04:17:19;99359.13;;;5.27;100.00
45253;BME280;63171;50.520;30.486;2023-03-16T04:18:13;99358.28;;;5.26;100.00
45253;BME280;63171;50.520;30.486;2023-03-16T04:19:05;99361.63;;;5.28;100.00
45253;BME280;63171;50.520;30.486;2023-03-16T04:19:56;99368.06;;;5.21;100.00
45253;BME280;63171;50.520;30.486;2023-03-16T04:20:46;99371.94;;;5.13;100.00
45253;BME280;63171;50.520;30.486;2023-03-16T04:21:41;99371.09;;;5.12;100.00
45253;BME280;63171;50.520;30.486;2023-03-16T04:22:31;99367.41;;;5.16;100.00
45253;BME280;63171;50.520;30.486;2023-03-16T04:23:22;99365.47;;;5.21;100.00
45253;BME280;63171;50.520;30.486;2023-03-16T04:24:14;99370.94;;;5.15;100.00
45253;BME280;63171;50.520;30.486;2023-03-16T04:25:06;99363.16;;;5.15;100.00
45253;BME280;63171;50.520;30.486;2023-03-16T04:25:59;99366.34;;;5.20;100.00
45253;BME280;63171;50.520;30.486;2023-03-16T04:26:49;99360.19;;;5.23;100.00
45253;BME280;63171;50.520;30.486;2023-03-16T04:27:39;99359.19;;;5.25;100.00
45253;BME280;63171;50.520;30.486;2023-03-16T04:28:31;99364.28;;;5.10;100.00
45253;BME280;63171;50.520;30.486;2023-03-16T04:29:21;99362.63;;;5.09;100.00
45253;BME280;63171;50.520;30.486;2023-03-16T04:30:14;99359.94;;;5.10;100.00
45253;BME280;63171;50.520;30.486;2023-03-16T04:31:10;99360.84;;;5.09;100.00
45253;BME280;63171;50.520;30.486;2023-03-16T04:32:04;99361.81;;;5.07;100.00
45253;BME280;63171;50.520;30.486;2023-03-16T04:32:55;99361.22;;;5.01;100.00
45253;BME280;63171;50.520;30.486;2023-03-16T04:33:47;99363.81;;;5.01;100.00
45253;BME280;63171;50.520;30.486;2023-03-16T04:34:39;99362.97;;;5.01;100.00
45253;BME280;63171;50.520;30.486;2023-03-16T04:35:32;99366.41;;;5.01;100.00
45253;BME280;63171;50.520;30.486;2023-03-16T04:36:23;99369.59;;;5.07;100.00